createdAt,value
2017-05-22T00:01:48.849Z,6.60
2017-05-22T00:06:50.832Z,7.17
2017-05-22T00:09:19.378Z,8.02
2017-05-22T00:14:23.261Z,7.82
2017-05-22T00:16:50.964Z,7.90
2017-05-22T00:19:18.992Z,8.32
2017-05-22T00:21:47.376Z,7.75
2017-05-22T00:24:15.944Z,8.32
2017-05-22T00:26:45.902Z,7.90
2017-05-22T00:29:14.030Z,8.43
2017-05-22T00:31:42.646Z,7.92
2017-05-22T00:34:14.852Z,7.50
2017-05-22T00:36:43.261Z,9.22
2017-05-22T00:39:11.982Z,9.02
2017-05-22T00:41:39.050Z,8.38
2017-05-22T00:44:10.556Z,9.42
2017-05-22T00:46:37.909Z,10.63
2017-05-22T00:49:06.257Z,10.20
2017-05-22T00:51:34.834Z,9.33
2017-05-22T00:54:01.697Z,11.40
2017-05-22T00:56:30.077Z,10.58
2017-05-22T00:58:57.557Z,11.40
2017-05-22T01:01:25.094Z,8.95
2017-05-22T01:03:56.427Z,9.55
2017-05-22T01:06:23.253Z,9.83
2017-05-22T01:08:52.248Z,9.07
2017-05-22T01:11:28.243Z,10.07
2017-05-22T01:14:01.725Z,9.80
2017-05-22T01:16:30.240Z,12.37
2017-05-22T01:18:58.389Z,11.08
2017-05-22T01:21:25.260Z,11.53
2017-05-22T01:23:54.442Z,10.27
2017-05-22T01:26:21.635Z,11.45
2017-05-22T01:28:50.545Z,10.22
2017-05-22T01:31:24.481Z,9.73
2017-05-22T01:36:31.304Z,10.75
2017-05-22T01:38:58.117Z,9.85
2017-05-22T01:41:28.864Z,10.10
2017-05-22T01:43:55.660Z,9.48
2017-05-22T01:46:24.603Z,13.00
2017-05-22T01:51:27.529Z,9.47
2017-05-22T01:53:58.129Z,8.92
2017-05-22T01:56:25.664Z,9.88
2017-05-22T01:58:53.213Z,9.13
2017-05-22T02:01:23.401Z,9.98
2017-05-22T02:03:50.196Z,10.03
2017-05-22T02:06:18.366Z,9.90
2017-05-22T02:08:45.472Z,9.82
2017-05-22T02:11:14.554Z,10.43
2017-05-22T02:13:42.422Z,10.17
2017-05-22T02:16:14.079Z,12.07
2017-05-22T02:18:41.840Z,10.57
2017-05-22T02:21:09.450Z,11.77
2017-05-22T02:23:36.546Z,11.28
2017-05-22T02:26:04.262Z,10.92
2017-05-22T02:28:34.347Z,10.23
2017-05-22T02:31:02.400Z,9.92
2017-05-22T02:33:30.214Z,11.47
2017-05-22T02:35:59.226Z,11.12
2017-05-22T02:38:26.321Z,10.97
2017-05-22T02:40:53.135Z,10.98
2017-05-22T02:43:21.298Z,11.53
2017-05-22T02:45:49.220Z,10.35
2017-05-22T02:48:21.461Z,11.48
2017-05-22T02:50:50.165Z,12.17
2017-05-22T02:53:17.024Z,10.92
2017-05-22T02:55:45.445Z,12.18
2017-05-22T02:58:15.161Z,10.98
2017-05-22T03:00:43.245Z,11.90
2017-05-22T03:03:10.433Z,11.60
2017-05-22T03:05:37.609Z,11.77
2017-05-22T03:08:05.109Z,11.72
2017-05-22T03:10:34.398Z,11.28
2017-05-22T03:13:02.572Z,12.15
2017-05-22T03:15:30.019Z,11.18
2017-05-22T03:18:00.818Z,10.95
2017-05-22T03:20:27.901Z,12.07
2017-05-22T03:22:55.233Z,11.03
2017-05-22T03:25:22.036Z,11.28
2017-05-22T03:27:50.669Z,11.15
2017-05-22T03:30:19.125Z,11.67
2017-05-22T03:32:55.244Z,12.35
2017-05-22T03:35:22.439Z,13.07
2017-05-22T03:37:49.940Z,12.65
2017-05-22T03:40:17.254Z,13.15
2017-05-22T03:42:47.140Z,12.70
2017-05-22T03:45:15.137Z,12.35
2017-05-22T03:50:17.204Z,12.28
2017-05-22T03:52:44.837Z,13.37
2017-05-22T03:55:13.226Z,11.97
2017-05-22T03:57:40.039Z,11.30
2017-05-22T04:00:07.920Z,12.20
2017-05-22T04:02:35.555Z,13.20
2017-05-22T04:05:03.208Z,11.53
2017-05-22T04:07:30.388Z,11.75
2017-05-22T04:12:35.009Z,11.52
2017-05-22T04:15:02.176Z,13.02
2017-05-22T04:17:28.978Z,12.75
2017-05-22T04:19:58.402Z,13.07
2017-05-22T04:22:25.500Z,12.22
2017-05-22T04:24:57.835Z,12.50
2017-05-22T04:27:26.632Z,12.13
2017-05-22T04:29:54.975Z,12.22
2017-05-22T04:32:26.520Z,11.30
2017-05-22T04:34:54.524Z,12.40
2017-05-22T04:37:23.336Z,11.57
2017-05-22T04:39:54.756Z,12.22
2017-05-22T04:42:24.126Z,11.13
2017-05-22T04:44:52.201Z,10.70
2017-05-22T04:47:19.035Z,10.18
2017-05-22T04:49:48.854Z,10.90
2017-05-22T04:52:16.770Z,10.80
2017-05-22T04:54:44.445Z,10.68
2017-05-22T04:57:15.514Z,10.87
2017-05-22T04:59:45.371Z,10.58
2017-05-22T05:02:13.084Z,9.40
2017-05-22T05:04:40.651Z,10.20
2017-05-22T05:07:08.953Z,9.50
2017-05-22T05:09:39.291Z,10.07
2017-05-22T05:12:08.748Z,11.08
2017-05-22T05:14:35.909Z,9.50
2017-05-22T05:17:02.741Z,8.37
2017-05-22T05:19:29.820Z,9.47
2017-05-22T05:21:56.612Z,9.77
2017-05-22T05:24:23.408Z,9.70
2017-05-22T05:26:50.221Z,9.90
2017-05-22T05:29:17.007Z,9.82
2017-05-22T05:31:44.603Z,9.67
2017-05-22T05:34:11.393Z,9.82
2017-05-22T05:36:38.218Z,9.50
2017-05-22T05:39:05.026Z,11.15
2017-05-22T05:41:32.087Z,9.82
2017-05-22T05:43:58.889Z,8.93
2017-05-22T05:46:27.368Z,9.60
2017-05-22T05:48:54.168Z,9.33
2017-05-22T05:51:20.975Z,8.93
2017-05-22T05:53:48.375Z,8.78
2017-05-22T05:56:15.172Z,8.75
2017-05-22T05:58:41.973Z,9.05
2017-05-22T06:01:09.033Z,8.83
2017-05-22T06:03:35.841Z,9.20
2017-05-22T06:06:02.628Z,8.20
2017-05-22T06:08:29.721Z,8.04
2017-05-22T06:10:56.492Z,8.70
2017-05-22T06:13:23.921Z,8.88
2017-05-22T06:15:50.968Z,8.80
2017-05-22T06:18:17.781Z,7.97
2017-05-22T06:20:46.264Z,8.05
2017-05-22T06:23:13.897Z,9.72
2017-05-22T06:25:40.690Z,8.82
2017-05-22T06:28:07.483Z,8.33
2017-05-22T06:30:34.552Z,10.24
2017-05-22T06:33:01.342Z,9.32
2017-05-22T06:35:28.128Z,8.06
2017-05-22T06:37:55.209Z,8.48
2017-05-22T06:40:21.998Z,8.26
2017-05-22T06:45:20.898Z,7.28
2017-05-22T06:47:48.016Z,6.72
2017-05-22T06:50:16.502Z,6.82
2017-05-22T06:52:45.339Z,6.08
2017-05-22T06:57:45.109Z,4.88
2017-05-22T07:00:12.218Z,5.92
2017-05-22T07:02:39.384Z,5.96
2017-05-22T07:05:06.471Z,6.58
2017-05-22T07:07:35.038Z,6.10
2017-05-22T07:10:01.833Z,6.96
2017-05-22T07:12:28.909Z,6.82
2017-05-22T07:14:56.038Z,8.68
2017-05-22T07:17:23.157Z,7.98
2017-05-22T07:19:50.614Z,7.58
2017-05-22T07:22:17.411Z,7.86
2017-05-22T07:24:44.192Z,8.12
2017-05-22T07:27:11.269Z,7.60
2017-05-22T07:29:41.841Z,7.60
2017-05-22T07:34:41.885Z,8.62
2017-05-22T07:37:10.364Z,6.48
2017-05-22T07:42:10.332Z,7.10
2017-05-22T07:44:37.874Z,5.58
2017-05-22T07:47:04.666Z,7.40
2017-05-22T07:49:31.961Z,6.98
2017-05-22T07:51:58.760Z,6.70
2017-05-22T07:54:26.451Z,7.22
2017-05-22T07:56:53.552Z,7.26
2017-05-22T07:59:21.278Z,7.22
2017-05-22T08:01:48.445Z,6.54
2017-05-22T08:04:15.507Z,6.78
2017-05-22T08:06:42.313Z,6.50
2017-05-22T08:09:09.121Z,6.44
2017-05-22T08:11:36.243Z,6.34
2017-05-22T08:14:03.949Z,9.52
2017-05-22T08:16:30.769Z,7.68
2017-05-22T08:19:01.488Z,7.24
2017-05-22T08:21:28.309Z,6.58
2017-05-22T08:23:55.118Z,6.40
2017-05-22T08:26:22.173Z,9.26
2017-05-22T08:28:49.374Z,5.46
2017-05-22T08:31:16.164Z,6.46
2017-05-22T08:33:43.225Z,5.80
2017-05-22T08:36:11.686Z,5.62
2017-05-22T08:38:38.911Z,5.24
2017-05-22T08:41:06.759Z,4.64
2017-05-22T08:43:33.588Z,4.34
2017-05-22T08:46:01.205Z,4.64
2017-05-22T08:48:28.711Z,4.60
2017-05-22T08:50:55.496Z,4.48
2017-05-22T08:53:22.255Z,9.54
2017-05-22T08:55:49.322Z,4.00
2017-05-22T08:58:16.100Z,3.68
2017-05-22T09:00:42.877Z,3.30
2017-05-22T09:03:09.975Z,3.76
2017-05-22T09:05:38.003Z,3.36
2017-05-22T09:08:04.793Z,3.38
2017-05-22T09:10:32.109Z,3.00
2017-05-22T09:12:58.894Z,2.74
2017-05-22T09:15:27.373Z,2.80
2017-05-22T09:17:54.462Z,2.90
2017-05-22T09:22:52.693Z,2.92
2017-05-22T09:25:19.792Z,3.70
2017-05-22T09:27:46.625Z,3.00
2017-05-22T09:30:13.445Z,3.28
2017-05-22T09:32:40.529Z,3.72
2017-05-22T09:35:07.573Z,3.32
2017-05-22T09:37:34.781Z,3.84
2017-05-22T09:40:02.308Z,2.80
2017-05-22T09:42:29.488Z,3.04
2017-05-22T09:44:56.306Z,4.94
2017-05-22T09:47:24.234Z,3.48
2017-05-22T09:49:51.958Z,3.90
2017-05-22T09:52:18.776Z,4.14
2017-05-22T09:54:45.877Z,2.90
2017-05-22T09:57:13.125Z,3.20
2017-05-22T10:04:42.485Z,3.20
2017-05-22T10:07:09.632Z,3.04
2017-05-22T10:09:36.949Z,2.10
2017-05-22T10:12:05.451Z,2.12
2017-05-22T10:17:04.814Z,2.28
2017-05-22T10:19:31.929Z,2.38
2017-05-22T10:21:59.028Z,2.16
2017-05-22T10:24:26.117Z,3.04
2017-05-22T10:26:52.946Z,2.52
2017-05-22T10:29:19.744Z,3.16
2017-05-22T10:31:47.170Z,1.88
2017-05-22T10:34:13.968Z,1.90
2017-05-22T10:36:40.749Z,6.00
2017-05-22T10:39:07.867Z,2.24
2017-05-22T10:41:35.657Z,1.78
2017-05-22T10:44:02.461Z,2.08
2017-05-22T10:46:29.596Z,2.30
2017-05-22T10:48:56.452Z,1.70
2017-05-22T10:51:23.255Z,1.92
2017-05-22T10:53:51.084Z,2.48
2017-05-22T10:56:18.532Z,2.18
2017-05-22T10:58:46.334Z,1.96
2017-05-22T11:01:13.389Z,2.00
2017-05-22T11:03:40.184Z,1.88
2017-05-22T11:06:07.689Z,1.94
2017-05-22T11:08:34.747Z,1.90
2017-05-22T11:11:05.208Z,2.66
2017-05-22T11:13:33.731Z,1.98
2017-05-22T11:16:00.781Z,2.30
2017-05-22T11:18:27.584Z,1.78
2017-05-22T11:20:54.380Z,1.96
2017-05-22T11:23:22.473Z,1.66
2017-05-22T11:25:49.272Z,1.80
2017-05-22T11:28:16.097Z,2.68
2017-05-22T11:30:43.185Z,1.84
2017-05-22T11:33:09.970Z,3.64
2017-05-22T11:35:36.773Z,2.40
2017-05-22T11:38:03.874Z,1.98
2017-05-22T11:43:02.545Z,2.54
2017-05-22T11:45:30.541Z,2.18
2017-05-22T11:47:58.342Z,2.52
2017-05-22T11:50:25.149Z,2.50
2017-05-22T11:52:53.117Z,2.22
2017-05-22T11:55:20.318Z,2.16
2017-05-22T11:57:48.783Z,2.58
2017-05-22T12:00:16.229Z,2.12
2017-05-22T12:02:44.911Z,2.14
2017-05-22T12:05:13.609Z,2.40
2017-05-22T12:07:44.467Z,2.70
2017-05-22T12:12:42.561Z,2.34
2017-05-22T12:15:09.349Z,4.44
2017-05-22T12:17:39.893Z,1.90
2017-05-22T12:28:32.251Z,2.30
2017-05-22T12:33:31.134Z,2.44
2017-05-22T12:38:30.625Z,2.52
2017-05-22T12:43:31.137Z,2.12
2017-05-22T12:45:59.622Z,2.42
2017-05-22T12:50:58.115Z,3.20
2017-05-22T12:55:56.200Z,2.62
2017-05-22T12:58:23.017Z,2.74
2017-05-22T13:03:21.354Z,2.28
2017-05-22T13:05:49.831Z,2.30
2017-05-22T13:10:48.381Z,2.70
2017-05-22T13:13:19.065Z,2.20
2017-05-22T13:15:45.964Z,3.10
2017-05-22T13:20:44.081Z,2.50
2017-05-22T13:23:10.896Z,2.00
2017-05-22T13:25:38.714Z,2.60
2017-05-22T13:28:06.822Z,2.84
2017-05-22T13:30:33.619Z,2.78
2017-05-22T13:35:33.454Z,2.82
2017-05-22T13:38:01.273Z,2.16
2017-05-22T13:40:28.444Z,3.14
2017-05-22T13:45:28.285Z,2.62
2017-05-22T13:47:58.977Z,4.38
2017-05-22T13:50:28.683Z,4.44
2017-05-22T13:57:59.704Z,2.80
2017-05-22T14:00:28.178Z,2.54
2017-05-22T14:02:55.865Z,2.30
2017-05-22T14:05:26.673Z,3.12
2017-05-22T14:07:55.248Z,2.56
2017-05-22T14:12:54.777Z,2.58
2017-05-22T14:15:21.818Z,2.36
2017-05-22T14:17:50.613Z,2.46
2017-05-22T14:25:19.481Z,3.06
2017-05-22T14:30:18.977Z,2.38
2017-05-22T14:35:17.090Z,2.52
2017-05-22T14:45:19.588Z,3.12
2017-05-22T14:47:48.094Z,2.46
2017-05-22T14:50:16.589Z,2.94
2017-05-22T14:52:45.121Z,2.94
2017-05-22T14:55:12.205Z,3.54
2017-05-22T14:57:39.933Z,2.56
2017-05-22T15:00:07.520Z,2.20
2017-05-22T15:02:34.580Z,2.92
2017-05-22T15:05:03.044Z,2.74
2017-05-22T15:07:30.632Z,2.46
2017-05-22T15:15:02.460Z,2.52
2017-05-22T15:17:30.969Z,2.60
2017-05-22T15:22:29.995Z,2.48
2017-05-22T15:25:00.705Z,2.88
2017-05-22T15:32:34.224Z,2.50
2017-05-22T15:35:02.869Z,4.90
2017-05-22T15:37:31.606Z,5.10
2017-05-22T15:40:00.417Z,2.90
2017-05-22T15:42:29.135Z,2.66
2017-05-22T15:47:27.241Z,2.74
2017-05-22T15:49:54.469Z,2.34
2017-05-22T15:52:21.279Z,2.44
2017-05-22T15:54:50.097Z,2.12
2017-05-22T15:57:17.620Z,3.02
2017-05-22T15:59:45.285Z,2.80
2017-05-22T16:02:14.061Z,2.94
2017-05-22T16:04:41.749Z,2.72
2017-05-22T16:07:12.148Z,3.22
2017-05-22T16:09:39.671Z,2.78
2017-05-22T16:12:07.397Z,2.72
2017-05-22T16:14:35.638Z,2.44
2017-05-22T16:17:02.801Z,2.70
2017-05-22T16:19:29.857Z,2.80
2017-05-22T16:21:58.357Z,2.50
2017-05-22T16:26:58.505Z,2.98
2017-05-22T16:29:25.314Z,3.50
2017-05-22T16:31:52.783Z,3.44
2017-05-22T16:34:19.593Z,2.84
2017-05-22T16:36:48.292Z,2.76
2017-05-22T16:39:15.771Z,3.90
2017-05-22T16:44:13.968Z,3.20
2017-05-22T16:46:41.069Z,2.28
2017-05-22T16:49:11.657Z,4.14
2017-05-22T16:54:14.065Z,2.96
2017-05-22T16:56:41.294Z,3.00
2017-05-22T16:59:11.023Z,6.78
2017-05-22T17:01:38.727Z,2.72
2017-05-22T17:06:39.869Z,3.50
2017-05-22T17:09:07.317Z,2.72
2017-05-22T17:11:34.929Z,2.30
2017-05-22T17:14:02.417Z,2.90
2017-05-22T17:16:29.460Z,3.10
2017-05-22T17:23:59.357Z,2.70
2017-05-22T17:26:26.551Z,4.64
2017-05-22T17:31:24.420Z,3.04
2017-05-22T17:36:22.976Z,2.10
2017-05-22T17:38:50.108Z,2.80
2017-05-22T17:41:20.580Z,2.52
2017-05-22T17:43:48.025Z,2.60
2017-05-22T17:46:17.017Z,2.96
2017-05-22T17:48:44.161Z,3.28
2017-05-22T17:51:11.618Z,2.76
2017-05-22T17:53:38.680Z,3.20
2017-05-22T17:56:05.925Z,3.18
2017-05-22T17:58:33.038Z,2.30
2017-05-22T18:01:01.452Z,4.84
2017-05-22T18:03:30.061Z,2.80
2017-05-22T18:05:57.215Z,2.94
2017-05-22T18:08:24.673Z,3.28
2017-05-22T18:10:51.747Z,3.08
2017-05-22T18:13:22.257Z,3.24
2017-05-22T21:05:20.090Z,5.48
2017-05-22T21:07:55.318Z,6.17
2017-05-22T21:10:23.721Z,5.13
2017-05-22T21:12:50.995Z,5.10
2017-05-22T21:15:20.093Z,5.77
2017-05-22T21:17:50.872Z,5.67
2017-05-22T21:20:19.988Z,5.30
2017-05-22T21:22:52.275Z,6.53
2017-05-22T21:25:20.202Z,5.67
2017-05-22T21:27:48.468Z,6.12
2017-05-22T21:30:18.183Z,6.77
2017-05-22T21:32:45.297Z,6.70
2017-05-22T21:35:17.522Z,6.28
2017-05-22T21:37:46.062Z,8.30
2017-05-22T21:40:16.002Z,6.28
2017-05-22T21:42:45.613Z,7.82
2017-05-22T21:45:14.517Z,6.97
2017-05-22T21:47:44.170Z,6.95
2017-05-22T21:50:17.553Z,6.93
2017-05-22T21:52:47.606Z,7.02
2017-05-22T21:55:16.050Z,6.32
2017-05-22T21:57:47.993Z,7.50
2017-05-22T22:02:50.714Z,5.77
2017-05-22T22:05:19.472Z,6.82
2017-05-22T22:07:47.926Z,7.55
2017-05-22T22:10:15.563Z,7.88
2017-05-22T22:12:42.722Z,6.93
2017-05-22T22:15:09.929Z,6.85
2017-05-22T22:17:39.482Z,6.18
2017-05-22T22:20:10.247Z,6.62
2017-05-22T22:22:37.752Z,7.57
2017-05-22T22:25:06.696Z,6.27
2017-05-22T22:27:37.040Z,7.82
2017-05-22T22:30:06.233Z,6.78
2017-05-22T22:32:35.299Z,6.70
2017-05-22T22:35:02.558Z,6.13
2017-05-22T22:37:33.252Z,8.45
2017-05-22T22:40:03.728Z,6.50
2017-05-22T22:42:32.024Z,6.88
2017-05-22T22:45:01.339Z,7.28
2017-05-22T22:47:32.893Z,7.58
2017-05-22T22:50:03.778Z,6.58
2017-05-22T22:52:32.790Z,7.07
2017-05-22T22:55:00.221Z,6.68
2017-05-22T22:57:28.749Z,6.20
2017-05-22T22:59:58.490Z,8.50
2017-05-22T23:02:29.746Z,7.02
2017-05-22T23:05:02.680Z,6.55
2017-05-22T23:07:29.726Z,6.65
2017-05-22T23:12:33.904Z,7.58
2017-05-22T23:15:00.753Z,7.48
2017-05-22T23:17:35.487Z,6.32
2017-05-22T23:20:03.861Z,7.47
2017-05-22T23:22:30.611Z,7.45
2017-05-22T23:25:00.217Z,6.70
2017-05-22T23:27:30.501Z,6.95
2017-05-22T23:29:57.987Z,7.08
2017-05-22T23:32:25.974Z,7.37
2017-05-22T23:34:54.997Z,7.07
2017-05-22T23:37:24.906Z,7.05
2017-05-22T23:39:53.655Z,8.38
2017-05-22T23:45:00.797Z,7.85
2017-05-22T23:47:28.365Z,7.80
2017-05-22T23:52:31.458Z,8.08
2017-05-22T23:54:58.322Z,8.88
2017-05-22T23:57:27.238Z,8.62
2017-05-22T23:59:59.625Z,7.97
